FLI256 EKVG-EFHK
Flight info
| Callsign | FLI256 |
|---|---|
| Flight time | 2h 3m |
| Altitude | 37000 |
| Route | LUVEK DCT BARUD/N0463F370 DCT VIG DCT OSKOK DCT BAKLA DCT UXADA Y349 AMROT Y362 LAKUT |
| Aircraft | A20N/M-SDE2E3FGHIRWXY/LB1 |
Departure
| Time | 2026-05-07 16:06 |
|---|---|
| Airport | Vágar Airport (EKVG) |
Arrival
| Time | 2026-05-07 18:10 |
|---|---|
| Airport | Helsinki Vantaa Airport (EFHK) |
| Time | Latitude | Longitude | Altitude | Speed | Heading |
|---|---|---|---|---|---|
| 2026-05-07 15:44 | 62.06686 | -7.27950 | 283 ft | 0 kts | 28° |
| 2026-05-07 15:59 | 62.06680 | -7.27957 | 293 ft | 2 kts | 19° |
| 2026-05-07 15:59 | 62.06665 | -7.27961 | 293 ft | 2 kts | 354° |
| 2026-05-07 16:00 | 62.06650 | -7.27952 | 292 ft | 2 kts | 331° |
| 2026-05-07 16:00 | 62.06639 | -7.27932 | 293 ft | 2 kts | 308° |
| 2026-05-07 16:00 | 62.06632 | -7.27907 | 293 ft | 0 kts | 289° |
| 2026-05-07 16:00 | 62.06632 | -7.27906 | 293 ft | 0 kts | 289° |
| 2026-05-07 16:02 | 62.06633 | -7.27910 | 293 ft | 1 kts | 289° |
| 2026-05-07 16:02 | 62.06638 | -7.27946 | 293 ft | 3 kts | 291° |
| 2026-05-07 16:03 | 62.06651 | -7.28018 | 292 ft | 5 kts | 278° |
| 2026-05-07 16:03 | 62.06622 | -7.28084 | 293 ft | 7 kts | 185° |
| 2026-05-07 16:03 | 62.06571 | -7.28091 | 293 ft | 7 kts | 191° |
| 2026-05-07 16:03 | 62.06517 | -7.28128 | 294 ft | 8 kts | 202° |
| 2026-05-07 16:04 | 62.06488 | -7.28216 | 294 ft | 9 kts | 281° |
| 2026-05-07 16:04 | 62.06522 | -7.28378 | 292 ft | 14 kts | 297° |
| 2026-05-07 16:04 | 62.06576 | -7.28596 | 288 ft | 19 kts | 298° |
| 2026-05-07 16:04 | 62.06644 | -7.28873 | 282 ft | 22 kts | 298° |
| 2026-05-07 16:05 | 62.06701 | -7.29129 | 281 ft | 12 kts | 277° |
| 2026-05-07 16:05 | 62.06717 | -7.29184 | 281 ft | 3 kts | 114° |
| 2026-05-07 16:05 | 62.06708 | -7.29134 | 281 ft | 0 kts | 118° |
| 2026-05-07 16:05 | 62.06662 | -7.28946 | 281 ft | 48 kts | 118° |
| 2026-05-07 16:06 | 62.06397 | -7.27865 | 298 ft | 114 kts | 117° |
| 2026-05-07 16:06 | 62.05956 | -7.26125 | 544 ft | 142 kts | 116° |
| 2026-05-07 16:06 | 62.05500 | -7.24311 | 1241 ft | 140 kts | 116° |
| 2026-05-07 16:06 | 62.05068 | -7.22549 | 1994 ft | 135 kts | 116° |
| 2026-05-07 16:07 | 62.04689 | -7.20865 | 2625 ft | 125 kts | 110° |
| 2026-05-07 16:07 | 62.04433 | -7.19112 | 3103 ft | 125 kts | 103° |
| 2026-05-07 16:07 | 62.04303 | -7.17298 | 3540 ft | 128 kts | 95° |
| 2026-05-07 16:07 | 62.04246 | -7.15313 | 3860 ft | 141 kts | 94° |
| 2026-05-07 16:08 | 62.04190 | -7.13129 | 4163 ft | 158 kts | 95° |
| 2026-05-07 16:08 | 62.04110 | -7.10647 | 4495 ft | 176 kts | 100° |
| 2026-05-07 16:08 | 62.03852 | -7.08031 | 4881 ft | 191 kts | 109° |
| 2026-05-07 16:08 | 62.03440 | -7.05214 | 5282 ft | 207 kts | 110° |
| 2026-05-07 16:09 | 62.02977 | -7.02151 | 5564 ft | 230 kts | 110° |
| 2026-05-07 16:09 | 62.02464 | -6.98795 | 5991 ft | 247 kts | 110° |
| 2026-05-07 16:09 | 62.01918 | -6.95197 | 6412 ft | 264 kts | 110° |
| 2026-05-07 16:09 | 62.01344 | -6.91404 | 6802 ft | 282 kts | 110° |
| 2026-05-07 16:10 | 62.00728 | -6.87336 | 7209 ft | 298 kts | 110° |
| 2026-05-07 16:10 | 62.00074 | -6.83036 | 7578 ft | 314 kts | 110° |
| 2026-05-07 16:10 | 61.99390 | -6.78511 | 7914 ft | 331 kts | 109° |
| 2026-05-07 16:10 | 61.98949 | -6.73588 | 8221 ft | 351 kts | 97° |
| 2026-05-07 16:11 | 61.99015 | -6.68301 | 8623 ft | 367 kts | 85° |
| 2026-05-07 16:11 | 61.99494 | -6.62998 | 9213 ft | 373 kts | 81° |
| 2026-05-07 16:11 | 62.00050 | -6.57588 | 9775 ft | 379 kts | 81° |
| 2026-05-07 16:11 | 62.00621 | -6.52107 | 10316 ft | 384 kts | 81° |
| 2026-05-07 16:12 | 62.01197 | -6.46492 | 10871 ft | 388 kts | 82° |
| 2026-05-07 16:12 | 62.01758 | -6.40942 | 11412 ft | 392 kts | 82° |
| 2026-05-07 16:12 | 62.02323 | -6.35262 | 11986 ft | 395 kts | 82° |
| 2026-05-07 16:12 | 62.02891 | -6.29525 | 12560 ft | 397 kts | 82° |
| 2026-05-07 16:13 | 62.03453 | -6.23830 | 13101 ft | 401 kts | 82° |
| 2026-05-07 16:13 | 62.04030 | -6.17992 | 13644 ft | 404 kts | 82° |
| 2026-05-07 16:13 | 62.04608 | -6.12101 | 14175 ft | 409 kts | 82° |
| 2026-05-07 16:13 | 62.05181 | -6.06205 | 14715 ft | 413 kts | 82° |
| 2026-05-07 16:14 | 62.05767 | -6.00177 | 15215 ft | 415 kts | 82° |
| 2026-05-07 16:14 | 62.06345 | -5.94202 | 15671 ft | 419 kts | 82° |
| 2026-05-07 16:14 | 62.06932 | -5.88110 | 16163 ft | 424 kts | 82° |
| 2026-05-07 16:14 | 62.07523 | -5.81927 | 16677 ft | 427 kts | 82° |
| 2026-05-07 16:15 | 62.08110 | -5.75762 | 17174 ft | 430 kts | 82° |
| 2026-05-07 16:15 | 62.08705 | -5.69473 | 17663 ft | 434 kts | 82° |
| 2026-05-07 16:15 | 62.09299 | -5.63154 | 18140 ft | 437 kts | 82° |
| 2026-05-07 16:15 | 62.09888 | -5.56855 | 18602 ft | 440 kts | 82° |
| 2026-05-07 16:16 | 62.10489 | -5.50391 | 19060 ft | 444 kts | 82° |
| 2026-05-07 16:16 | 62.11082 | -5.43980 | 19497 ft | 447 kts | 82° |
| 2026-05-07 16:16 | 62.11679 | -5.37486 | 19928 ft | 450 kts | 82° |
| 2026-05-07 16:16 | 62.12286 | -5.30849 | 20359 ft | 454 kts | 83° |
| 2026-05-07 16:17 | 62.12883 | -5.24281 | 20758 ft | 457 kts | 83° |
| 2026-05-07 16:17 | 62.13490 | -5.17561 | 21130 ft | 461 kts | 83° |
| 2026-05-07 16:17 | 62.14089 | -5.10894 | 21484 ft | 465 kts | 83° |
| 2026-05-07 16:17 | 62.14693 | -5.04132 | 21831 ft | 469 kts | 83° |
| 2026-05-07 16:18 | 62.15307 | -4.97216 | 22164 ft | 473 kts | 83° |
| 2026-05-07 16:18 | 62.15915 | -4.90335 | 22492 ft | 476 kts | 83° |
| 2026-05-07 16:18 | 62.16528 | -4.83354 | 22816 ft | 480 kts | 82° |
| 2026-05-07 16:18 | 62.17137 | -4.76368 | 23126 ft | 484 kts | 82° |
| 2026-05-07 16:19 | 62.17753 | -4.69267 | 23420 ft | 487 kts | 82° |
| 2026-05-07 16:19 | 62.18361 | -4.62212 | 23698 ft | 490 kts | 82° |
| 2026-05-07 16:19 | 62.18981 | -4.54976 | 23971 ft | 494 kts | 82° |
| 2026-05-07 16:19 | 62.19591 | -4.47807 | 24226 ft | 498 kts | 82° |
| 2026-05-07 16:20 | 62.20211 | -4.40463 | 24468 ft | 501 kts | 82° |
| 2026-05-07 16:20 | 62.20825 | -4.33162 | 24743 ft | 502 kts | 83° |
| 2026-05-07 16:20 | 62.21436 | -4.25857 | 25074 ft | 502 kts | 83° |
| 2026-05-07 16:20 | 62.22044 | -4.18519 | 25396 ft | 502 kts | 83° |
| 2026-05-07 16:21 | 62.22649 | -4.11167 | 25704 ft | 503 kts | 83° |
| 2026-05-07 16:21 | 62.23250 | -4.03815 | 26004 ft | 503 kts | 83° |
| 2026-05-07 16:21 | 62.23848 | -3.96448 | 26303 ft | 504 kts | 83° |
| 2026-05-07 16:21 | 62.24440 | -3.89103 | 26613 ft | 505 kts | 83° |
| 2026-05-07 16:22 | 62.25036 | -3.81653 | 26932 ft | 505 kts | 83° |
| 2026-05-07 16:22 | 62.25620 | -3.74308 | 27243 ft | 505 kts | 83° |
| 2026-05-07 16:22 | 62.26206 | -3.66881 | 27556 ft | 506 kts | 83° |
| 2026-05-07 16:22 | 62.26789 | -3.59447 | 27874 ft | 506 kts | 83° |
| 2026-05-07 16:23 | 62.27364 | -3.52044 | 28193 ft | 506 kts | 83° |
| 2026-05-07 16:23 | 62.27934 | -3.44670 | 28512 ft | 506 kts | 83° |
| 2026-05-07 16:23 | 62.28502 | -3.37259 | 28832 ft | 506 kts | 83° |
| 2026-05-07 16:23 | 62.29072 | -3.29763 | 29153 ft | 506 kts | 84° |
| 2026-05-07 16:24 | 62.29636 | -3.22296 | 29471 ft | 506 kts | 84° |
| 2026-05-07 16:24 | 62.30188 | -3.14918 | 29775 ft | 506 kts | 84° |
| 2026-05-07 16:24 | 62.30740 | -3.07488 | 30076 ft | 507 kts | 84° |
| 2026-05-07 16:24 | 62.31294 | -2.99983 | 30374 ft | 507 kts | 84° |
| 2026-05-07 16:25 | 62.31834 | -2.92596 | 30673 ft | 507 kts | 84° |
| 2026-05-07 16:25 | 62.32382 | -2.85062 | 30981 ft | 508 kts | 84° |
| 2026-05-07 16:25 | 62.32918 | -2.77629 | 31284 ft | 508 kts | 84° |
| 2026-05-07 16:25 | 62.33455 | -2.70133 | 31578 ft | 508 kts | 84° |
| 2026-05-07 16:26 | 62.33982 | -2.62733 | 31833 ft | 508 kts | 84° |
| 2026-05-07 16:26 | 62.34510 | -2.55241 | 32100 ft | 507 kts | 84° |
| 2026-05-07 16:26 | 62.35037 | -2.47696 | 32371 ft | 507 kts | 83° |
| 2026-05-07 16:26 | 62.35376 | -2.42810 | 32539 ft | 506 kts | 83° |
| 2026-05-07 16:27 | 62.36066 | -2.32798 | 32859 ft | 506 kts | 84° |
| 2026-05-07 16:27 | 62.36570 | -2.25424 | 33089 ft | 505 kts | 84° |
| 2026-05-07 16:27 | 62.37077 | -2.17939 | 33317 ft | 504 kts | 84° |
| 2026-05-07 16:27 | 62.37572 | -2.10560 | 33536 ft | 503 kts | 84° |
| 2026-05-07 16:28 | 62.38069 | -2.03078 | 33755 ft | 503 kts | 84° |
| 2026-05-07 16:28 | 62.38559 | -1.95650 | 33954 ft | 502 kts | 84° |
| 2026-05-07 16:28 | 62.39045 | -1.88230 | 34133 ft | 502 kts | 84° |
| 2026-05-07 16:28 | 62.39520 | -1.80904 | 34307 ft | 502 kts | 84° |
| 2026-05-07 16:29 | 62.40000 | -1.73434 | 34487 ft | 502 kts | 84° |
| 2026-05-07 16:29 | 62.40477 | -1.65971 | 34664 ft | 502 kts | 84° |
| 2026-05-07 16:29 | 62.40941 | -1.58629 | 34831 ft | 502 kts | 84° |
| 2026-05-07 16:29 | 62.41409 | -1.51163 | 34996 ft | 501 kts | 84° |
| 2026-05-07 16:30 | 62.41866 | -1.43804 | 35143 ft | 501 kts | 84° |
| 2026-05-07 16:30 | 62.42325 | -1.36357 | 35278 ft | 502 kts | 84° |
| 2026-05-07 16:30 | 62.42779 | -1.28932 | 35391 ft | 502 kts | 85° |
| 2026-05-07 16:30 | 62.43231 | -1.21460 | 35493 ft | 503 kts | 85° |
| 2026-05-07 16:31 | 62.43677 | -1.13999 | 35569 ft | 503 kts | 85° |
| 2026-05-07 16:31 | 62.44558 | -0.99110 | 35756 ft | 502 kts | 85° |
| 2026-05-07 16:32 | 62.45419 | -0.84232 | 35931 ft | 501 kts | 84° |
| 2026-05-07 16:32 | 62.46265 | -0.69354 | 36086 ft | 501 kts | 84° |
| 2026-05-07 16:33 | 62.47094 | -0.54492 | 36225 ft | 501 kts | 84° |
| 2026-05-07 16:33 | 62.47907 | -0.39638 | 36365 ft | 501 kts | 84° |
| 2026-05-07 16:34 | 62.48706 | -0.24756 | 36494 ft | 500 kts | 85° |
| 2026-05-07 16:34 | 62.49484 | -0.09914 | 36620 ft | 500 kts | 85° |
| 2026-05-07 16:35 | 62.50159 | 0.05010 | 36735 ft | 499 kts | 88° |
| 2026-05-07 16:35 | 62.50602 | 0.19921 | 36837 ft | 499 kts | 88° |
| 2026-05-07 16:36 | 62.51008 | 0.34781 | 36953 ft | 499 kts | 88° |
| 2026-05-07 16:36 | 62.51406 | 0.49752 | 37014 ft | 503 kts | 88° |
| 2026-05-07 16:37 | 62.51799 | 0.64829 | 37044 ft | 506 kts | 88° |
| 2026-05-07 16:37 | 62.52179 | 0.79958 | 37042 ft | 506 kts | 88° |
| 2026-05-07 16:38 | 62.52544 | 0.95168 | 37037 ft | 505 kts | 88° |
| 2026-05-07 16:38 | 62.52890 | 1.10270 | 37036 ft | 506 kts | 88° |
| 2026-05-07 16:39 | 62.53223 | 1.25442 | 37040 ft | 506 kts | 88° |
| 2026-05-07 16:39 | 62.53534 | 1.40593 | 37036 ft | 506 kts | 88° |
| 2026-05-07 16:40 | 62.53835 | 1.55728 | 37033 ft | 506 kts | 88° |
| 2026-05-07 16:40 | 62.54110 | 1.70823 | 37033 ft | 506 kts | 89° |
| 2026-05-07 16:41 | 62.54369 | 1.85999 | 37037 ft | 506 kts | 89° |
| 2026-05-07 16:41 | 62.54622 | 2.01240 | 37039 ft | 507 kts | 89° |
| 2026-05-07 16:42 | 62.54857 | 2.16367 | 37040 ft | 507 kts | 89° |
| 2026-05-07 16:42 | 62.55071 | 2.31567 | 37043 ft | 507 kts | 89° |
| 2026-05-07 16:43 | 62.55269 | 2.46833 | 37048 ft | 507 kts | 89° |
| 2026-05-07 16:43 | 62.55453 | 2.62018 | 37050 ft | 507 kts | 89° |
| 2026-05-07 16:44 | 62.55620 | 2.77197 | 37053 ft | 506 kts | 90° |
| 2026-05-07 16:44 | 62.55760 | 2.92343 | 37058 ft | 506 kts | 90° |
| 2026-05-07 16:45 | 62.55902 | 3.07565 | 37062 ft | 505 kts | 90° |
| 2026-05-07 16:45 | 62.56015 | 3.22653 | 37065 ft | 505 kts | 89° |
| 2026-05-07 16:46 | 62.56117 | 3.37807 | 37072 ft | 504 kts | 90° |
| 2026-05-07 16:46 | 62.56200 | 3.52915 | 37081 ft | 504 kts | 90° |
| 2026-05-07 16:47 | 62.56266 | 3.68020 | 37084 ft | 503 kts | 90° |
| 2026-05-07 16:47 | 62.56319 | 3.83202 | 37092 ft | 503 kts | 90° |
| 2026-05-07 16:48 | 62.56357 | 3.98238 | 37095 ft | 503 kts | 91° |
| 2026-05-07 16:48 | 62.56367 | 4.13384 | 37104 ft | 503 kts | 90° |
| 2026-05-07 16:49 | 62.56368 | 4.28434 | 37103 ft | 503 kts | 90° |
| 2026-05-07 16:49 | 62.56357 | 4.43494 | 37101 ft | 503 kts | 91° |
| 2026-05-07 16:50 | 62.56319 | 4.58623 | 37093 ft | 503 kts | 90° |
| 2026-05-07 16:50 | 62.56282 | 4.73739 | 37087 ft | 503 kts | 91° |
| 2026-05-07 16:51 | 62.56216 | 4.88820 | 37086 ft | 503 kts | 91° |
| 2026-05-07 16:51 | 62.56133 | 5.03914 | 37085 ft | 502 kts | 91° |
| 2026-05-07 16:52 | 62.56039 | 5.18900 | 37094 ft | 502 kts | 91° |
| 2026-05-07 16:52 | 62.55932 | 5.34033 | 37098 ft | 502 kts | 91° |
| 2026-05-07 16:53 | 62.55799 | 5.49064 | 37104 ft | 501 kts | 91° |
| 2026-05-07 16:53 | 62.55656 | 5.64070 | 37110 ft | 501 kts | 91° |
| 2026-05-07 16:54 | 62.55500 | 5.79102 | 37117 ft | 500 kts | 92° |
| 2026-05-07 16:54 | 62.55312 | 5.94088 | 37124 ft | 500 kts | 92° |
| 2026-05-07 16:55 | 62.55113 | 6.09108 | 37126 ft | 500 kts | 92° |
| 2026-05-07 16:55 | 62.54889 | 6.24136 | 37125 ft | 500 kts | 92° |
| 2026-05-07 16:56 | 62.54627 | 6.39128 | 37110 ft | 500 kts | 92° |
| 2026-05-07 16:56 | 62.54218 | 6.61642 | 37091 ft | 501 kts | 92° |
| 2026-05-07 16:57 | 62.53922 | 6.76647 | 37088 ft | 501 kts | 93° |
| 2026-05-07 16:57 | 62.53618 | 6.91650 | 37081 ft | 501 kts | 93° |
| 2026-05-07 16:58 | 62.53285 | 7.06770 | 36792 ft | 501 kts | 93° |
| 2026-05-07 16:58 | 62.53119 | 7.14276 | 36688 ft | 501 kts | 93° |
| 2026-05-07 16:58 | 62.52949 | 7.21748 | 36637 ft | 501 kts | 93° |
| 2026-05-07 16:59 | 62.52587 | 7.36747 | 36677 ft | 501 kts | 93° |
| 2026-05-07 16:59 | 62.52211 | 7.51760 | 36859 ft | 501 kts | 93° |
| 2026-05-07 17:00 | 62.52015 | 7.59240 | 36962 ft | 500 kts | 93° |
| 2026-05-07 17:00 | 62.51817 | 7.66779 | 37029 ft | 500 kts | 94° |
| 2026-05-07 17:00 | 62.51411 | 7.81750 | 37090 ft | 502 kts | 94° |
| 2026-05-07 17:01 | 62.50988 | 7.96779 | 36778 ft | 504 kts | 94° |
| 2026-05-07 17:01 | 62.50770 | 8.04369 | 36409 ft | 502 kts | 94° |
| 2026-05-07 17:01 | 62.50549 | 8.11830 | 36230 ft | 501 kts | 94° |
| 2026-05-07 17:02 | 62.50094 | 8.26777 | 36193 ft | 502 kts | 94° |
| 2026-05-07 17:02 | 62.49621 | 8.41862 | 36300 ft | 504 kts | 94° |
| 2026-05-07 17:03 | 62.49131 | 8.56941 | 36437 ft | 504 kts | 94° |
| 2026-05-07 17:03 | 62.48881 | 8.64460 | 36327 ft | 506 kts | 94° |
| 2026-05-07 17:03 | 62.48626 | 8.72011 | 36218 ft | 506 kts | 95° |
| 2026-05-07 17:04 | 62.48098 | 8.87218 | 36118 ft | 506 kts | 95° |
| 2026-05-07 17:04 | 62.47559 | 9.02300 | 36360 ft | 501 kts | 95° |
| 2026-05-07 17:05 | 62.47009 | 9.17245 | 36435 ft | 503 kts | 95° |
| 2026-05-07 17:05 | 62.46436 | 9.32327 | 36264 ft | 506 kts | 95° |
| 2026-05-07 17:06 | 62.45848 | 9.47378 | 36152 ft | 506 kts | 95° |
| 2026-05-07 17:06 | 62.45244 | 9.62437 | 36065 ft | 506 kts | 95° |
| 2026-05-07 17:07 | 62.44622 | 9.77518 | 36005 ft | 507 kts | 96° |
| 2026-05-07 17:07 | 62.43979 | 9.92687 | 36051 ft | 508 kts | 95° |
| 2026-05-07 17:08 | 62.43324 | 10.07766 | 36170 ft | 509 kts | 95° |
| 2026-05-07 17:08 | 62.42650 | 10.22912 | 36362 ft | 507 kts | 95° |
| 2026-05-07 17:09 | 62.42306 | 10.30488 | 36494 ft | 505 kts | 95° |
| 2026-05-07 17:09 | 62.41962 | 10.37958 | 36622 ft | 503 kts | 95° |
| 2026-05-07 17:09 | 62.41618 | 10.45390 | 36745 ft | 501 kts | 96° |
| 2026-05-07 17:09 | 62.41268 | 10.52859 | 36853 ft | 500 kts | 96° |
| 2026-05-07 17:10 | 62.40554 | 10.67699 | 36969 ft | 500 kts | 97° |
| 2026-05-07 17:10 | 62.39818 | 10.82643 | 37005 ft | 501 kts | 96° |
| 2026-05-07 17:11 | 62.39078 | 10.97536 | 37021 ft | 504 kts | 97° |
| 2026-05-07 17:11 | 62.38311 | 11.12552 | 37027 ft | 504 kts | 96° |
| 2026-05-07 17:12 | 62.37529 | 11.27495 | 37036 ft | 504 kts | 97° |
| 2026-05-07 17:12 | 62.36731 | 11.42451 | 37043 ft | 504 kts | 97° |
| 2026-05-07 17:13 | 62.35923 | 11.57343 | 37051 ft | 504 kts | 97° |
| 2026-05-07 17:13 | 62.35085 | 11.72309 | 37053 ft | 504 kts | 97° |
| 2026-05-07 17:14 | 62.34244 | 11.87225 | 37058 ft | 505 kts | 97° |
| 2026-05-07 17:14 | 62.33379 | 12.02234 | 37057 ft | 505 kts | 97° |
| 2026-05-07 17:15 | 62.32496 | 12.17130 | 37062 ft | 505 kts | 97° |
| 2026-05-07 17:15 | 62.31379 | 12.31950 | 37061 ft | 505 kts | 103° |
| 2026-05-07 17:16 | 62.29841 | 12.46596 | 37055 ft | 505 kts | 103° |
| 2026-05-07 17:16 | 62.28252 | 12.61304 | 37053 ft | 505 kts | 103° |
| 2026-05-07 17:17 | 62.26675 | 12.75972 | 37051 ft | 505 kts | 104° |
| 2026-05-07 17:17 | 62.25088 | 12.90572 | 37051 ft | 505 kts | 104° |
| 2026-05-07 17:18 | 62.23486 | 13.05142 | 37056 ft | 504 kts | 104° |
| 2026-05-07 17:18 | 62.21869 | 13.19699 | 37063 ft | 504 kts | 104° |
| 2026-05-07 17:19 | 62.20231 | 13.34281 | 37069 ft | 504 kts | 104° |
| 2026-05-07 17:19 | 62.18591 | 13.48734 | 37074 ft | 504 kts | 104° |
| 2026-05-07 17:20 | 62.16929 | 13.63236 | 37081 ft | 504 kts | 104° |
| 2026-05-07 17:20 | 62.15227 | 13.77930 | 37083 ft | 504 kts | 105° |
| 2026-05-07 17:21 | 62.13540 | 13.92345 | 37088 ft | 505 kts | 105° |
| 2026-05-07 17:21 | 62.11829 | 14.06828 | 37089 ft | 505 kts | 105° |
| 2026-05-07 17:22 | 62.10104 | 14.21287 | 37088 ft | 505 kts | 105° |
| 2026-05-07 17:22 | 62.08360 | 14.35757 | 37086 ft | 505 kts | 105° |
| 2026-05-07 17:23 | 62.06603 | 14.50199 | 37081 ft | 505 kts | 105° |
| 2026-05-07 17:23 | 62.04823 | 14.64647 | 37080 ft | 505 kts | 105° |
| 2026-05-07 17:24 | 62.03013 | 14.79205 | 37075 ft | 504 kts | 107° |
| 2026-05-07 17:24 | 62.01217 | 14.93530 | 37073 ft | 503 kts | 107° |
| 2026-05-07 17:25 | 61.99392 | 15.07953 | 37072 ft | 503 kts | 107° |
| 2026-05-07 17:25 | 61.97570 | 15.22226 | 37088 ft | 503 kts | 107° |
| 2026-05-07 17:26 | 61.95724 | 15.36551 | 37119 ft | 504 kts | 107° |
| 2026-05-07 17:26 | 61.93865 | 15.50843 | 37110 ft | 504 kts | 107° |
| 2026-05-07 17:27 | 61.91987 | 15.65142 | 37078 ft | 504 kts | 108° |
| 2026-05-07 17:27 | 61.90097 | 15.79412 | 37071 ft | 503 kts | 108° |
| 2026-05-07 17:28 | 61.88181 | 15.93725 | 37072 ft | 503 kts | 108° |
| 2026-05-07 17:28 | 61.86271 | 16.07874 | 37078 ft | 503 kts | 108° |
| 2026-05-07 17:29 | 61.84336 | 16.22093 | 37085 ft | 504 kts | 108° |
| 2026-05-07 17:29 | 61.82392 | 16.36249 | 37088 ft | 504 kts | 108° |
| 2026-05-07 17:30 | 61.80423 | 16.50470 | 37095 ft | 503 kts | 108° |
| 2026-05-07 17:30 | 61.78436 | 16.64698 | 37101 ft | 503 kts | 108° |
| 2026-05-07 17:31 | 61.76456 | 16.78759 | 37107 ft | 503 kts | 109° |
| 2026-05-07 17:31 | 61.74452 | 16.92848 | 37108 ft | 503 kts | 109° |
| 2026-05-07 17:32 | 61.72424 | 17.06966 | 37107 ft | 503 kts | 109° |
| 2026-05-07 17:32 | 61.70399 | 17.20956 | 37104 ft | 503 kts | 109° |
| 2026-05-07 17:33 | 61.68348 | 17.35027 | 37098 ft | 502 kts | 109° |
| 2026-05-07 17:33 | 61.66303 | 17.48936 | 37095 ft | 502 kts | 109° |
| 2026-05-07 17:34 | 61.64225 | 17.62962 | 37093 ft | 502 kts | 109° |
| 2026-05-07 17:34 | 61.62151 | 17.76846 | 37094 ft | 501 kts | 110° |
| 2026-05-07 17:35 | 61.60054 | 17.90761 | 37097 ft | 501 kts | 110° |
| 2026-05-07 17:35 | 61.57942 | 18.04671 | 37099 ft | 501 kts | 110° |
| 2026-05-07 17:36 | 61.55825 | 18.18511 | 37103 ft | 501 kts | 110° |
| 2026-05-07 17:36 | 61.53699 | 18.32295 | 37108 ft | 501 kts | 110° |
| 2026-05-07 17:37 | 61.51550 | 18.46115 | 37117 ft | 501 kts | 110° |
| 2026-05-07 17:37 | 61.49303 | 18.59804 | 37120 ft | 500 kts | 112° |
| 2026-05-07 17:38 | 61.46883 | 18.73467 | 37122 ft | 499 kts | 113° |
| 2026-05-07 17:38 | 61.44475 | 18.87006 | 37121 ft | 499 kts | 113° |
| 2026-05-07 17:39 | 61.42072 | 19.00483 | 37119 ft | 500 kts | 113° |
| 2026-05-07 17:39 | 61.39652 | 19.14009 | 37115 ft | 500 kts | 113° |
| 2026-05-07 17:40 | 61.37203 | 19.27622 | 37115 ft | 500 kts | 113° |
| 2026-05-07 17:40 | 61.34768 | 19.41066 | 37117 ft | 500 kts | 113° |
| 2026-05-07 17:41 | 61.32309 | 19.54547 | 37117 ft | 500 kts | 113° |
| 2026-05-07 17:41 | 61.29839 | 19.68004 | 37115 ft | 500 kts | 114° |
| 2026-05-07 17:42 | 61.27334 | 19.81559 | 37116 ft | 500 kts | 114° |
| 2026-05-07 17:42 | 61.24833 | 19.94991 | 37118 ft | 501 kts | 115° |
| 2026-05-07 17:43 | 61.22333 | 20.08313 | 37119 ft | 501 kts | 115° |
| 2026-05-07 17:43 | 61.19798 | 20.21737 | 37119 ft | 501 kts | 115° |
| 2026-05-07 17:44 | 61.17256 | 20.35110 | 37120 ft | 500 kts | 115° |
| 2026-05-07 17:44 | 61.14711 | 20.48409 | 37123 ft | 500 kts | 115° |
| 2026-05-07 17:45 | 61.12156 | 20.61676 | 37127 ft | 499 kts | 115° |
| 2026-05-07 17:45 | 61.09575 | 20.74993 | 37110 ft | 499 kts | 116° |
| 2026-05-07 17:46 | 61.08270 | 20.81682 | 36911 ft | 498 kts | 116° |
| 2026-05-07 17:46 | 61.06997 | 20.88195 | 36716 ft | 496 kts | 116° |
| 2026-05-07 17:46 | 61.05710 | 20.94752 | 36518 ft | 493 kts | 116° |
| 2026-05-07 17:46 | 61.04428 | 21.01268 | 36322 ft | 490 kts | 116° |
| 2026-05-07 17:47 | 61.03153 | 21.07721 | 36128 ft | 488 kts | 116° |
| 2026-05-07 17:47 | 61.01868 | 21.14204 | 35931 ft | 486 kts | 116° |
| 2026-05-07 17:47 | 61.00600 | 21.20577 | 35736 ft | 486 kts | 116° |
| 2026-05-07 17:47 | 60.99310 | 21.27044 | 35436 ft | 487 kts | 116° |
| 2026-05-07 17:48 | 60.98033 | 21.33421 | 34969 ft | 488 kts | 116° |
| 2026-05-07 17:48 | 60.96748 | 21.39825 | 34389 ft | 490 kts | 116° |
| 2026-05-07 17:48 | 60.95441 | 21.46306 | 33738 ft | 494 kts | 116° |
| 2026-05-07 17:48 | 60.94116 | 21.52861 | 33028 ft | 499 kts | 116° |
| 2026-05-07 17:49 | 60.92794 | 21.59378 | 32283 ft | 503 kts | 116° |
| 2026-05-07 17:49 | 60.91453 | 21.65967 | 31501 ft | 508 kts | 117° |
| 2026-05-07 17:49 | 60.90071 | 21.72740 | 30672 ft | 512 kts | 117° |
| 2026-05-07 17:49 | 60.88710 | 21.79396 | 29954 ft | 512 kts | 117° |
| 2026-05-07 17:50 | 60.87332 | 21.86120 | 29336 ft | 507 kts | 117° |
| 2026-05-07 17:50 | 60.85976 | 21.92723 | 28468 ft | 500 kts | 118° |
| 2026-05-07 17:50 | 60.84638 | 21.99212 | 27153 ft | 502 kts | 118° |
| 2026-05-07 17:50 | 60.83281 | 22.05755 | 26037 ft | 492 kts | 118° |
| 2026-05-07 17:51 | 60.81955 | 22.12132 | 25098 ft | 487 kts | 118° |
| 2026-05-07 17:51 | 60.80633 | 22.18454 | 24190 ft | 490 kts | 118° |
| 2026-05-07 17:51 | 60.79274 | 22.24925 | 23579 ft | 490 kts | 118° |
| 2026-05-07 17:51 | 60.77936 | 22.31293 | 23031 ft | 488 kts | 118° |
| 2026-05-07 17:52 | 60.76615 | 22.37561 | 22491 ft | 484 kts | 118° |
| 2026-05-07 17:52 | 60.75282 | 22.43873 | 21929 ft | 480 kts | 118° |
| 2026-05-07 17:52 | 60.73983 | 22.50004 | 21373 ft | 475 kts | 117° |
| 2026-05-07 17:52 | 60.72664 | 22.56213 | 20817 ft | 471 kts | 117° |
| 2026-05-07 17:53 | 60.71371 | 22.62279 | 20259 ft | 467 kts | 117° |
| 2026-05-07 17:53 | 60.70078 | 22.68334 | 19687 ft | 462 kts | 118° |
| 2026-05-07 17:53 | 60.68793 | 22.74326 | 19115 ft | 457 kts | 118° |
| 2026-05-07 17:53 | 60.67537 | 22.80169 | 18570 ft | 453 kts | 118° |
| 2026-05-07 17:54 | 60.66299 | 22.85908 | 17953 ft | 448 kts | 118° |
| 2026-05-07 17:54 | 60.65064 | 22.91616 | 17403 ft | 443 kts | 118° |
| 2026-05-07 17:54 | 60.63829 | 22.97314 | 16847 ft | 438 kts | 118° |
| 2026-05-07 17:54 | 60.62606 | 23.02939 | 16299 ft | 434 kts | 117° |
| 2026-05-07 17:55 | 60.61391 | 23.08511 | 15752 ft | 430 kts | 117° |
| 2026-05-07 17:55 | 60.60187 | 23.14020 | 15201 ft | 424 kts | 117° |
| 2026-05-07 17:55 | 60.58990 | 23.19494 | 14651 ft | 419 kts | 117° |
| 2026-05-07 17:55 | 60.57822 | 23.24826 | 14102 ft | 412 kts | 117° |
| 2026-05-07 17:56 | 60.56667 | 23.30086 | 13555 ft | 408 kts | 117° |
| 2026-05-07 17:56 | 60.55515 | 23.35291 | 13006 ft | 404 kts | 117° |
| 2026-05-07 17:56 | 60.54373 | 23.40435 | 12455 ft | 399 kts | 116° |
| 2026-05-07 17:56 | 60.53244 | 23.45522 | 11910 ft | 394 kts | 116° |
| 2026-05-07 17:57 | 60.52132 | 23.50538 | 11497 ft | 385 kts | 116° |
| 2026-05-07 17:57 | 60.51406 | 23.53805 | 11331 ft | 374 kts | 116° |
| 2026-05-07 17:57 | 60.50009 | 23.60060 | 11047 ft | 355 kts | 116° |
| 2026-05-07 17:57 | 60.49007 | 23.64526 | 10845 ft | 342 kts | 115° |
| 2026-05-07 17:58 | 60.48038 | 23.68838 | 10657 ft | 330 kts | 116° |
| 2026-05-07 17:58 | 60.47112 | 23.72963 | 10488 ft | 318 kts | 116° |
| 2026-05-07 17:58 | 60.46202 | 23.77000 | 10336 ft | 306 kts | 115° |
| 2026-05-07 17:58 | 60.45346 | 23.80786 | 10208 ft | 294 kts | 115° |
| 2026-05-07 17:59 | 60.44517 | 23.84459 | 10107 ft | 281 kts | 114° |
| 2026-05-07 17:59 | 60.43974 | 23.88166 | 10059 ft | 266 kts | 96° |
| 2026-05-07 17:59 | 60.43965 | 23.91817 | 10063 ft | 259 kts | 83° |
| 2026-05-07 17:59 | 60.44178 | 23.95432 | 10063 ft | 259 kts | 80° |
| 2026-05-07 18:00 | 60.44424 | 23.99032 | 10059 ft | 258 kts | 81° |
| 2026-05-07 18:00 | 60.44657 | 24.02627 | 10065 ft | 258 kts | 82° |
| 2026-05-07 18:00 | 60.44868 | 24.06199 | 10067 ft | 258 kts | 82° |
| 2026-05-07 18:00 | 60.45076 | 24.09826 | 10069 ft | 258 kts | 81° |
| 2026-05-07 18:01 | 60.45280 | 24.13374 | 9986 ft | 255 kts | 82° |
| 2026-05-07 18:01 | 60.45488 | 24.17007 | 9440 ft | 264 kts | 82° |
| 2026-05-07 18:01 | 60.45702 | 24.20760 | 8761 ft | 276 kts | 82° |
| 2026-05-07 18:01 | 60.45921 | 24.24633 | 8141 ft | 283 kts | 82° |
| 2026-05-07 18:02 | 60.45142 | 24.32409 | 7058 ft | 291 kts | 117° |
| 2026-05-07 18:02 | 60.44160 | 24.35875 | 6521 ft | 283 kts | 119° |
| 2026-05-07 18:02 | 60.43149 | 24.39225 | 5982 ft | 276 kts | 120° |
| 2026-05-07 18:03 | 60.42182 | 24.42499 | 5416 ft | 270 kts | 113° |
| 2026-05-07 18:03 | 60.41855 | 24.46121 | 4962 ft | 262 kts | 80° |
| 2026-05-07 18:03 | 60.42216 | 24.49677 | 4447 ft | 257 kts | 72° |
| 2026-05-07 18:03 | 60.42678 | 24.53164 | 3791 ft | 257 kts | 73° |
| 2026-05-07 18:04 | 60.43102 | 24.56631 | 3208 ft | 256 kts | 75° |
| 2026-05-07 18:04 | 60.43476 | 24.60067 | 3037 ft | 245 kts | 77° |
| 2026-05-07 18:04 | 60.43813 | 24.63440 | 3026 ft | 242 kts | 78° |
| 2026-05-07 18:04 | 60.44127 | 24.66764 | 2975 ft | 237 kts | 79° |
| 2026-05-07 18:05 | 60.44421 | 24.69986 | 2919 ft | 224 kts | 79° |
| 2026-05-07 18:05 | 60.44697 | 24.73052 | 2875 ft | 224 kts | 80° |
| 2026-05-07 18:05 | 60.44975 | 24.76162 | 2799 ft | 219 kts | 80° |
| 2026-05-07 18:05 | 60.45240 | 24.79126 | 2708 ft | 209 kts | 80° |
| 2026-05-07 18:06 | 60.45485 | 24.81941 | 2571 ft | 201 kts | 83° |
| 2026-05-07 18:06 | 60.45298 | 24.84637 | 2387 ft | 193 kts | 125° |
| 2026-05-07 18:06 | 60.44273 | 24.86144 | 2342 ft | 179 kts | 161° |
| 2026-05-07 18:06 | 60.43113 | 24.86811 | 2292 ft | 173 kts | 164° |
| 2026-05-07 18:07 | 60.41964 | 24.87560 | 2166 ft | 173 kts | 159° |
| 2026-05-07 18:07 | 60.40861 | 24.88480 | 1932 ft | 171 kts | 156° |
| 2026-05-07 18:07 | 60.39798 | 24.89506 | 1703 ft | 170 kts | 153° |
| 2026-05-07 18:07 | 60.38742 | 24.90593 | 1472 ft | 169 kts | 153° |
| 2026-05-07 18:08 | 60.37746 | 24.91628 | 1263 ft | 154 kts | 153° |
| 2026-05-07 18:08 | 60.36845 | 24.92544 | 1032 ft | 139 kts | 153° |
| 2026-05-07 18:08 | 60.36009 | 24.93401 | 833 ft | 132 kts | 153° |
| 2026-05-07 18:08 | 60.35188 | 24.94247 | 654 ft | 131 kts | 154° |
| 2026-05-07 18:09 | 60.34378 | 24.95087 | 510 ft | 131 kts | 153° |
| 2026-05-07 18:09 | 60.33569 | 24.95906 | 331 ft | 131 kts | 153° |
| 2026-05-07 18:09 | 60.32762 | 24.96727 | 172 ft | 126 kts | 153° |
| 2026-05-07 18:09 | 60.32120 | 24.97383 | 166 ft | 79 kts | 152° |
| 2026-05-07 18:10 | 60.31792 | 24.97714 | 158 ft | 18 kts | 153° |
| 2026-05-07 18:10 | 60.31707 | 24.97700 | 157 ft | 12 kts | 211° |
| 2026-05-07 18:10 | 60.31668 | 24.97605 | 159 ft | 3 kts | 240° |
| 2026-05-07 18:10 | 60.31665 | 24.97598 | 159 ft | 0 kts | 240° |
| 2026-05-07 18:11 | 60.31666 | 24.97598 | 159 ft | 0 kts | 240° |
| 2026-05-07 18:11 | 60.31666 | 24.97599 | 159 ft | 0 kts | 240° |
| 2026-05-07 18:12 | 60.31665 | 24.97598 | 159 ft | 0 kts | 240° |
| 2026-05-07 18:12 | 60.31663 | 24.97589 | 160 ft | 2 kts | 250° |
| 2026-05-07 18:12 | 60.31670 | 24.97520 | 161 ft | 8 kts | 305° |
| 2026-05-07 18:12 | 60.31736 | 24.97438 | 161 ft | 12 kts | 332° |
| 2026-05-07 18:13 | 60.31815 | 24.97355 | 162 ft | 13 kts | 333° |
| 2026-05-07 18:13 | 60.31908 | 24.97258 | 164 ft | 14 kts | 332° |
| 2026-05-07 18:13 | 60.31930 | 24.97105 | 165 ft | 12 kts | 301° |
| 2026-05-07 18:13 | 60.32004 | 24.97010 | 165 ft | 10 kts | 333° |
| 2026-05-07 18:14 | 60.32009 | 24.96952 | 164 ft | 6 kts | 229° |
| 2026-05-07 18:14 | 60.31976 | 24.96898 | 164 ft | 3 kts | 217° |
| 2026-05-07 18:14 | 60.31975 | 24.96897 | 164 ft | 0 kts | 217° |